sensor_id;sensor_type;location;lat;lon;timestamp;P1;durP1;ratioP1;P2;durP2;ratioP2
23539;SDS011;11947;50.810;4.394;2023-03-01T00:00:40;25.45;;;12.68;;
23539;SDS011;11947;50.810;4.394;2023-03-01T00:03:06;28.25;;;12.98;;
23539;SDS011;11947;50.810;4.394;2023-03-01T00:05:31;28.23;;;12.98;;
23539;SDS011;11947;50.810;4.394;2023-03-01T00:07:57;27.63;;;13.10;;
23539;SDS011;11947;50.810;4.394;2023-03-01T00:10:23;25.33;;;12.50;;
23539;SDS011;11947;50.810;4.394;2023-03-01T00:12:49;25.40;;;13.57;;
23539;SDS011;11947;50.810;4.394;2023-03-01T00:15:14;24.75;;;12.70;;
23539;SDS011;11947;50.810;4.394;2023-03-01T00:17:40;25.83;;;13.48;;
23539;SDS011;11947;50.810;4.394;2023-03-01T00:20:06;26.30;;;13.73;;
23539;SDS011;11947;50.810;4.394;2023-03-01T00:22:38;34.13;;;13.52;;
23539;SDS011;11947;50.810;4.394;2023-03-01T00:25:04;27.13;;;13.35;;
23539;SDS011;11947;50.810;4.394;2023-03-01T00:27:29;26.20;;;12.32;;
23539;SDS011;11947;50.810;4.394;2023-03-01T00:29:55;28.85;;;13.10;;
23539;SDS011;11947;50.810;4.394;2023-03-01T00:32:20;25.55;;;12.90;;
23539;SDS011;11947;50.810;4.394;2023-03-01T00:34:46;24.95;;;12.82;;
23539;SDS011;11947;50.810;4.394;2023-03-01T00:37:21;27.73;;;13.27;;
23539;SDS011;11947;50.810;4.394;2023-03-01T00:39:48;28.00;;;13.00;;
23539;SDS011;11947;50.810;4.394;2023-03-01T00:42:13;26.70;;;12.88;;
23539;SDS011;11947;50.810;4.394;2023-03-01T00:44:39;23.15;;;12.20;;
23539;SDS011;11947;50.810;4.394;2023-03-01T00:47:05;22.73;;;11.95;;
23539;SDS011;11947;50.810;4.394;2023-03-01T00:49:30;26.20;;;12.48;;
23539;SDS011;11947;50.810;4.394;2023-03-01T00:51:56;22.85;;;12.27;;
23539;SDS011;11947;50.810;4.394;2023-03-01T00:54:22;25.98;;;12.68;;
23539;SDS011;11947;50.810;4.394;2023-03-01T00:56:47;30.27;;;12.70;;
23539;SDS011;11947;50.810;4.394;2023-03-01T00:59:13;25.17;;;12.25;;
23539;SDS011;11947;50.810;4.394;2023-03-01T01:01:38;27.30;;;12.85;;
23539;SDS011;11947;50.810;4.394;2023-03-01T01:04:05;27.67;;;13.23;;
23539;SDS011;11947;50.810;4.394;2023-03-01T01:06:34;24.30;;;12.52;;
23539;SDS011;11947;50.810;4.394;2023-03-01T01:09:10;25.85;;;12.52;;
23539;SDS011;11947;50.810;4.394;2023-03-01T01:11:48;26.02;;;12.05;;
23539;SDS011;11947;50.810;4.394;2023-03-01T01:14:16;26.40;;;12.77;;
23539;SDS011;11947;50.810;4.394;2023-03-01T01:16:43;27.90;;;12.35;;
23539;SDS011;11947;50.810;4.394;2023-03-01T01:19:09;25.75;;;12.10;;
23539;SDS011;11947;50.810;4.394;2023-03-01T01:21:36;22.90;;;12.00;;
23539;SDS011;11947;50.810;4.394;2023-03-01T01:24:03;30.55;;;11.75;;
23539;SDS011;11947;50.810;4.394;2023-03-01T01:26:29;27.40;;;12.93;;
23539;SDS011;11947;50.810;4.394;2023-03-01T01:28:57;24.98;;;11.77;;
23539;SDS011;11947;50.810;4.394;2023-03-01T01:31:24;24.08;;;11.77;;
23539;SDS011;11947;50.810;4.394;2023-03-01T01:33:50;26.35;;;13.05;;
23539;SDS011;11947;50.810;4.394;2023-03-01T01:36:17;25.85;;;11.95;;
23539;SDS011;11947;50.810;4.394;2023-03-01T01:38:42;27.10;;;12.55;;
23539;SDS011;11947;50.810;4.394;2023-03-01T01:41:08;25.77;;;11.60;;
23539;SDS011;11947;50.810;4.394;2023-03-01T01:43:41;29.63;;;12.48;;
23539;SDS011;11947;50.810;4.394;2023-03-01T01:48:59;22.55;;;11.18;;
23539;SDS011;11947;50.810;4.394;2023-03-01T01:51:33;27.95;;;11.18;;
23539;SDS011;11947;50.810;4.394;2023-03-01T01:54:06;24.95;;;12.48;;
23539;SDS011;11947;50.810;4.394;2023-03-01T01:56:52;23.53;;;11.47;;
23539;SDS011;11947;50.810;4.394;2023-03-01T01:59:25;22.02;;;11.20;;
23539;SDS011;11947;50.810;4.394;2023-03-01T02:01:53;22.23;;;11.20;;
23539;SDS011;11947;50.810;4.394;2023-03-01T02:04:19;24.83;;;11.77;;
23539;SDS011;11947;50.810;4.394;2023-03-01T02:06:49;22.50;;;11.50;;
23539;SDS011;11947;50.810;4.394;2023-03-01T02:09:22;28.17;;;12.10;;
23539;SDS011;11947;50.810;4.394;2023-03-01T02:11:48;26.40;;;12.43;;
23539;SDS011;11947;50.810;4.394;2023-03-01T02:14:16;27.85;;;13.25;;
23539;SDS011;11947;50.810;4.394;2023-03-01T02:16:42;25.10;;;12.23;;
23539;SDS011;11947;50.810;4.394;2023-03-01T02:19:08;24.33;;;11.88;;
23539;SDS011;11947;50.810;4.394;2023-03-01T02:21:51;23.98;;;11.18;;
23539;SDS011;11947;50.810;4.394;2023-03-01T02:24:40;26.75;;;12.35;;
23539;SDS011;11947;50.810;4.394;2023-03-01T02:27:12;23.80;;;11.60;;
23539;SDS011;11947;50.810;4.394;2023-03-01T02:29:38;25.83;;;12.27;;
23539;SDS011;11947;50.810;4.394;2023-03-01T02:32:04;24.15;;;11.85;;
23539;SDS011;11947;50.810;4.394;2023-03-01T02:34:30;24.67;;;12.15;;
23539;SDS011;11947;50.810;4.394;2023-03-01T02:36:59;25.55;;;11.80;;
23539;SDS011;11947;50.810;4.394;2023-03-01T02:39:47;23.98;;;12.68;;
23539;SDS011;11947;50.810;4.394;2023-03-01T02:42:21;27.55;;;12.10;;
23539;SDS011;11947;50.810;4.394;2023-03-01T02:44:50;26.35;;;12.20;;
23539;SDS011;11947;50.810;4.394;2023-03-01T02:47:16;24.38;;;11.90;;
23539;SDS011;11947;50.810;4.394;2023-03-01T02:49:42;27.88;;;11.95;;
23539;SDS011;11947;50.810;4.394;2023-03-01T02:52:11;23.00;;;11.93;;
23539;SDS011;11947;50.810;4.394;2023-03-01T02:57:32;24.45;;;12.50;;
23539;SDS011;11947;50.810;4.394;2023-03-01T03:00:05;24.60;;;12.55;;
23539;SDS011;11947;50.810;4.394;2023-03-01T03:05:06;22.85;;;12.02;;
23539;SDS011;11947;50.810;4.394;2023-03-01T03:07:33;29.70;;;12.15;;
23539;SDS011;11947;50.810;4.394;2023-03-01T03:10:01;31.35;;;12.98;;
23539;SDS011;11947;50.810;4.394;2023-03-01T03:12:28;30.25;;;13.40;;
23539;SDS011;11947;50.810;4.394;2023-03-01T03:14:54;27.73;;;12.25;;
23539;SDS011;11947;50.810;4.394;2023-03-01T03:17:19;25.63;;;12.30;;
23539;SDS011;11947;50.810;4.394;2023-03-01T03:19:45;31.15;;;12.93;;
23539;SDS011;11947;50.810;4.394;2023-03-01T03:22:11;26.13;;;12.85;;
23539;SDS011;11947;50.810;4.394;2023-03-01T03:24:40;29.17;;;13.15;;
23539;SDS011;11947;50.810;4.394;2023-03-01T03:27:06;27.42;;;12.57;;
23539;SDS011;11947;50.810;4.394;2023-03-01T03:29:32;25.95;;;12.70;;
23539;SDS011;11947;50.810;4.394;2023-03-01T03:31:58;28.35;;;12.65;;
23539;SDS011;11947;50.810;4.394;2023-03-01T03:34:24;26.63;;;13.00;;
23539;SDS011;11947;50.810;4.394;2023-03-01T03:36:56;24.60;;;12.32;;
23539;SDS011;11947;50.810;4.394;2023-03-01T03:39:24;28.60;;;13.13;;
23539;SDS011;11947;50.810;4.394;2023-03-01T03:41:53;27.70;;;12.80;;
23539;SDS011;11947;50.810;4.394;2023-03-01T03:44:19;28.73;;;12.65;;
23539;SDS011;11947;50.810;4.394;2023-03-01T03:46:45;28.80;;;13.18;;
23539;SDS011;11947;50.810;4.394;2023-03-01T03:49:10;27.15;;;13.23;;
23539;SDS011;11947;50.810;4.394;2023-03-01T03:51:36;26.70;;;13.27;;
23539;SDS011;11947;50.810;4.394;2023-03-01T03:54:02;29.20;;;13.38;;
23539;SDS011;11947;50.810;4.394;2023-03-01T03:56:27;26.40;;;13.15;;
23539;SDS011;11947;50.810;4.394;2023-03-01T03:58:53;26.52;;;13.02;;
23539;SDS011;11947;50.810;4.394;2023-03-01T04:01:19;25.17;;;12.65;;
23539;SDS011;11947;50.810;4.394;2023-03-01T04:03:45;27.77;;;13.30;;
23539;SDS011;11947;50.810;4.394;2023-03-01T04:06:12;29.48;;;13.13;;
23539;SDS011;11947;50.810;4.394;2023-03-01T04:08:38;28.25;;;13.45;;
23539;SDS011;11947;50.810;4.394;2023-03-01T04:11:04;28.73;;;12.57;;
23539;SDS011;11947;50.810;4.394;2023-03-01T04:13:49;27.25;;;12.82;;
23539;SDS011;11947;50.810;4.394;2023-03-01T04:16:15;27.50;;;12.60;;
23539;SDS011;11947;50.810;4.394;2023-03-01T04:18:42;28.80;;;13.57;;
23539;SDS011;11947;50.810;4.394;2023-03-01T04:21:08;26.35;;;13.40;;
23539;SDS011;11947;50.810;4.394;2023-03-01T04:23:36;28.63;;;13.52;;
23539;SDS011;11947;50.810;4.394;2023-03-01T04:26:02;25.52;;;12.77;;
23539;SDS011;11947;50.810;4.394;2023-03-01T04:28:29;28.98;;;13.18;;
23539;SDS011;11947;50.810;4.394;2023-03-01T04:30:56;28.98;;;13.32;;
23539;SDS011;11947;50.810;4.394;2023-03-01T04:33:24;25.38;;;12.63;;
23539;SDS011;11947;50.810;4.394;2023-03-01T04:35:50;23.58;;;12.63;;
23539;SDS011;11947;50.810;4.394;2023-03-01T04:38:16;30.38;;;13.10;;
23539;SDS011;11947;50.810;4.394;2023-03-01T04:40:43;25.48;;;12.75;;
23539;SDS011;11947;50.810;4.394;2023-03-01T04:43:09;28.35;;;13.02;;
23539;SDS011;11947;50.810;4.394;2023-03-01T04:45:36;27.17;;;12.82;;
23539;SDS011;11947;50.810;4.394;2023-03-01T04:48:02;26.55;;;13.10;;
23539;SDS011;11947;50.810;4.394;2023-03-01T04:50:28;34.00;;;13.05;;
23539;SDS011;11947;50.810;4.394;2023-03-01T04:52:54;24.80;;;12.35;;
23539;SDS011;11947;50.810;4.394;2023-03-01T04:55:23;27.73;;;12.98;;
23539;SDS011;11947;50.810;4.394;2023-03-01T04:57:52;28.73;;;13.95;;
23539;SDS011;11947;50.810;4.394;2023-03-01T05:00:19;27.88;;;12.95;;
23539;SDS011;11947;50.810;4.394;2023-03-01T05:05:34;26.27;;;12.38;;
23539;SDS011;11947;50.810;4.394;2023-03-01T05:08:02;73.72;;;15.23;;
23539;SDS011;11947;50.810;4.394;2023-03-01T05:10:30;27.45;;;13.35;;
23539;SDS011;11947;50.810;4.394;2023-03-01T05:12:57;24.88;;;12.70;;
23539;SDS011;11947;50.810;4.394;2023-03-01T05:15:27;28.17;;;13.50;;
23539;SDS011;11947;50.810;4.394;2023-03-01T05:17:55;28.02;;;14.10;;
23539;SDS011;11947;50.810;4.394;2023-03-01T05:20:23;26.58;;;13.30;;
23539;SDS011;11947;50.810;4.394;2023-03-01T05:22:50;25.55;;;12.80;;
23539;SDS011;11947;50.810;4.394;2023-03-01T05:25:20;26.13;;;12.23;;
23539;SDS011;11947;50.810;4.394;2023-03-01T05:27:46;29.63;;;13.73;;
23539;SDS011;11947;50.810;4.394;2023-03-01T05:30:12;29.80;;;13.85;;
23539;SDS011;11947;50.810;4.394;2023-03-01T05:32:45;27.83;;;13.70;;
23539;SDS011;11947;50.810;4.394;2023-03-01T05:35:12;28.85;;;13.38;;
23539;SDS011;11947;50.810;4.394;2023-03-01T05:37:43;30.63;;;13.50;;
23539;SDS011;11947;50.810;4.394;2023-03-01T05:40:18;28.48;;;13.35;;
23539;SDS011;11947;50.810;4.394;2023-03-01T05:42:46;27.65;;;13.18;;
23539;SDS011;11947;50.810;4.394;2023-03-01T05:45:18;28.15;;;13.18;;
23539;SDS011;11947;50.810;4.394;2023-03-01T05:47:44;27.92;;;12.80;;
23539;SDS011;11947;50.810;4.394;2023-03-01T05:50:16;27.00;;;14.02;;
23539;SDS011;11947;50.810;4.394;2023-03-01T05:52:52;24.80;;;12.48;;
23539;SDS011;11947;50.810;4.394;2023-03-01T05:55:24;27.08;;;13.30;;
23539;SDS011;11947;50.810;4.394;2023-03-01T05:57:50;27.10;;;13.75;;
23539;SDS011;11947;50.810;4.394;2023-03-01T06:00:17;28.40;;;13.65;;
23539;SDS011;11947;50.810;4.394;2023-03-01T06:02:44;31.98;;;13.23;;
23539;SDS011;11947;50.810;4.394;2023-03-01T06:05:11;26.98;;;12.75;;
23539;SDS011;11947;50.810;4.394;2023-03-01T06:07:37;30.92;;;13.75;;
23539;SDS011;11947;50.810;4.394;2023-03-01T06:10:03;30.63;;;14.10;;
23539;SDS011;11947;50.810;4.394;2023-03-01T06:12:33;27.65;;;14.00;;
23539;SDS011;11947;50.810;4.394;2023-03-01T06:15:00;28.23;;;13.43;;
23539;SDS011;11947;50.810;4.394;2023-03-01T06:17:29;29.02;;;12.93;;
23539;SDS011;11947;50.810;4.394;2023-03-01T06:19:55;28.05;;;13.10;;
23539;SDS011;11947;50.810;4.394;2023-03-01T06:22:21;35.17;;;13.70;;
23539;SDS011;11947;50.810;4.394;2023-03-01T06:24:46;27.55;;;13.60;;
23539;SDS011;11947;50.810;4.394;2023-03-01T06:27:12;26.75;;;13.63;;
23539;SDS011;11947;50.810;4.394;2023-03-01T06:29:37;32.50;;;13.63;;
23539;SDS011;11947;50.810;4.394;2023-03-01T06:32:03;28.30;;;13.93;;
23539;SDS011;11947;50.810;4.394;2023-03-01T06:34:29;26.42;;;13.02;;
23539;SDS011;11947;50.810;4.394;2023-03-01T06:36:55;35.88;;;14.82;;
23539;SDS011;11947;50.810;4.394;2023-03-01T06:39:20;27.75;;;13.10;;
23539;SDS011;11947;50.810;4.394;2023-03-01T06:41:46;35.08;;;14.88;;
23539;SDS011;11947;50.810;4.394;2023-03-01T06:44:12;31.35;;;14.57;;
23539;SDS011;11947;50.810;4.394;2023-03-01T06:46:40;34.53;;;14.75;;
23539;SDS011;11947;50.810;4.394;2023-03-01T06:49:06;30.48;;;15.13;;
23539;SDS011;11947;50.810;4.394;2023-03-01T06:51:34;43.17;;;15.95;;
23539;SDS011;11947;50.810;4.394;2023-03-01T06:54:01;33.58;;;14.95;;
23539;SDS011;11947;50.810;4.394;2023-03-01T06:56:28;36.80;;;15.90;;
23539;SDS011;11947;50.810;4.394;2023-03-01T06:58:54;32.67;;;15.00;;
23539;SDS011;11947;50.810;4.394;2023-03-01T07:01:19;35.25;;;15.27;;
23539;SDS011;11947;50.810;4.394;2023-03-01T07:03:45;31.90;;;14.15;;
23539;SDS011;11947;50.810;4.394;2023-03-01T07:06:11;29.88;;;13.70;;
23539;SDS011;11947;50.810;4.394;2023-03-01T07:08:36;32.42;;;13.88;;
23539;SDS011;11947;50.810;4.394;2023-03-01T07:11:02;34.55;;;13.85;;
23539;SDS011;11947;50.810;4.394;2023-03-01T07:13:28;28.20;;;13.60;;
23539;SDS011;11947;50.810;4.394;2023-03-01T07:15:54;33.75;;;13.82;;
23539;SDS011;11947;50.810;4.394;2023-03-01T07:18:20;31.35;;;14.57;;
23539;SDS011;11947;50.810;4.394;2023-03-01T07:20:46;30.92;;;13.65;;
23539;SDS011;11947;50.810;4.394;2023-03-01T07:23:11;29.42;;;14.20;;
23539;SDS011;11947;50.810;4.394;2023-03-01T07:25:37;29.45;;;14.27;;
23539;SDS011;11947;50.810;4.394;2023-03-01T07:28:02;28.30;;;13.27;;
23539;SDS011;11947;50.810;4.394;2023-03-01T07:30:28;31.48;;;14.18;;
23539;SDS011;11947;50.810;4.394;2023-03-01T07:32:54;29.92;;;13.65;;
23539;SDS011;11947;50.810;4.394;2023-03-01T07:35:21;32.40;;;14.13;;
23539;SDS011;11947;50.810;4.394;2023-03-01T07:37:47;28.95;;;14.23;;
23539;SDS011;11947;50.810;4.394;2023-03-01T07:40:13;32.63;;;14.02;;
23539;SDS011;11947;50.810;4.394;2023-03-01T07:42:38;29.25;;;13.88;;
23539;SDS011;11947;50.810;4.394;2023-03-01T07:45:04;30.30;;;13.63;;
23539;SDS011;11947;50.810;4.394;2023-03-01T07:47:31;25.05;;;13.05;;
23539;SDS011;11947;50.810;4.394;2023-03-01T07:49:56;25.13;;;12.98;;
23539;SDS011;11947;50.810;4.394;2023-03-01T07:52:22;27.77;;;13.82;;
23539;SDS011;11947;50.810;4.394;2023-03-01T07:54:48;29.08;;;13.00;;
23539;SDS011;11947;50.810;4.394;2023-03-01T07:57:13;27.25;;;13.07;;
23539;SDS011;11947;50.810;4.394;2023-03-01T07:59:39;29.63;;;13.18;;
23539;SDS011;11947;50.810;4.394;2023-03-01T08:02:05;27.23;;;12.88;;
23539;SDS011;11947;50.810;4.394;2023-03-01T08:04:31;28.67;;;13.10;;
23539;SDS011;11947;50.810;4.394;2023-03-01T08:07:01;28.10;;;13.73;;
23539;SDS011;11947;50.810;4.394;2023-03-01T08:09:29;27.60;;;13.68;;
23539;SDS011;11947;50.810;4.394;2023-03-01T08:11:56;32.05;;;14.85;;
23539;SDS011;11947;50.810;4.394;2023-03-01T08:14:24;28.65;;;14.75;;
23539;SDS011;11947;50.810;4.394;2023-03-01T08:16:50;29.83;;;14.45;;
23539;SDS011;11947;50.810;4.394;2023-03-01T08:19:15;30.25;;;14.07;;
23539;SDS011;11947;50.810;4.394;2023-03-01T08:21:41;27.45;;;13.48;;
23539;SDS011;11947;50.810;4.394;2023-03-01T08:24:07;24.83;;;13.52;;
23539;SDS011;11947;50.810;4.394;2023-03-01T08:26:35;28.75;;;14.48;;
23539;SDS011;11947;50.810;4.394;2023-03-01T08:29:01;30.05;;;14.07;;
23539;SDS011;11947;50.810;4.394;2023-03-01T08:31:30;26.45;;;13.65;;
23539;SDS011;11947;50.810;4.394;2023-03-01T08:34:03;27.25;;;12.63;;
23539;SDS011;11947;50.810;4.394;2023-03-01T08:36:31;28.77;;;14.30;;
23539;SDS011;11947;50.810;4.394;2023-03-01T08:38:58;28.92;;;13.55;;
23539;SDS011;11947;50.810;4.394;2023-03-01T08:41:24;30.95;;;13.63;;
23539;SDS011;11947;50.810;4.394;2023-03-01T08:43:50;30.83;;;13.88;;
23539;SDS011;11947;50.810;4.394;2023-03-01T08:46:16;30.52;;;13.07;;
23539;SDS011;11947;50.810;4.394;2023-03-01T08:48:41;30.35;;;13.88;;
23539;SDS011;11947;50.810;4.394;2023-03-01T08:51:17;29.98;;;14.52;;
23539;SDS011;11947;50.810;4.394;2023-03-01T08:53:44;29.80;;;14.23;;
23539;SDS011;11947;50.810;4.394;2023-03-01T08:56:10;27.48;;;13.48;;
23539;SDS011;11947;50.810;4.394;2023-03-01T08:58:37;29.13;;;13.55;;
23539;SDS011;11947;50.810;4.394;2023-03-01T09:01:11;27.20;;;13.82;;
23539;SDS011;11947;50.810;4.394;2023-03-01T09:03:38;28.38;;;14.07;;
23539;SDS011;11947;50.810;4.394;2023-03-01T09:06:05;28.58;;;14.27;;
23539;SDS011;11947;50.810;4.394;2023-03-01T09:08:34;27.67;;;14.55;;
23539;SDS011;11947;50.810;4.394;2023-03-01T09:11:01;29.58;;;14.27;;
23539;SDS011;11947;50.810;4.394;2023-03-01T09:13:28;31.30;;;14.30;;
23539;SDS011;11947;50.810;4.394;2023-03-01T09:15:56;26.67;;;13.32;;
23539;SDS011;11947;50.810;4.394;2023-03-01T09:18:22;31.35;;;14.23;;
23539;SDS011;11947;50.810;4.394;2023-03-01T09:20:47;27.10;;;13.93;;
23539;SDS011;11947;50.810;4.394;2023-03-01T09:23:13;28.60;;;13.70;;
23539;SDS011;11947;50.810;4.394;2023-03-01T09:25:38;28.48;;;13.82;;
23539;SDS011;11947;50.810;4.394;2023-03-01T09:28:04;28.35;;;14.25;;
23539;SDS011;11947;50.810;4.394;2023-03-01T09:30:30;26.42;;;13.93;;
23539;SDS011;11947;50.810;4.394;2023-03-01T09:32:58;27.38;;;14.20;;
23539;SDS011;11947;50.810;4.394;2023-03-01T09:35:24;28.70;;;14.23;;
23539;SDS011;11947;50.810;4.394;2023-03-01T09:37:49;28.55;;;13.82;;
23539;SDS011;11947;50.810;4.394;2023-03-01T09:40:17;32.88;;;14.88;;
23539;SDS011;11947;50.810;4.394;2023-03-01T09:42:47;34.00;;;13.77;;
23539;SDS011;11947;50.810;4.394;2023-03-01T09:45:33;27.23;;;13.57;;
23539;SDS011;11947;50.810;4.394;2023-03-01T09:48:03;26.83;;;14.38;;
23539;SDS011;11947;50.810;4.394;2023-03-01T09:50:38;27.92;;;13.57;;
23539;SDS011;11947;50.810;4.394;2023-03-01T09:53:13;26.35;;;13.80;;
23539;SDS011;11947;50.810;4.394;2023-03-01T09:58:57;29.75;;;13.95;;
23539;SDS011;11947;50.810;4.394;2023-03-01T10:06:58;28.02;;;14.32;;
23539;SDS011;11947;50.810;4.394;2023-03-01T10:09:40;31.08;;;14.88;;
23539;SDS011;11947;50.810;4.394;2023-03-01T10:12:09;30.20;;;14.63;;
23539;SDS011;11947;50.810;4.394;2023-03-01T10:14:39;26.73;;;14.77;;
23539;SDS011;11947;50.810;4.394;2023-03-01T10:17:22;28.60;;;14.57;;
23539;SDS011;11947;50.810;4.394;2023-03-01T10:20:09;28.00;;;14.63;;
23539;SDS011;11947;50.810;4.394;2023-03-01T10:22:48;28.98;;;14.93;;
23539;SDS011;11947;50.810;4.394;2023-03-01T10:27:52;27.02;;;14.32;;
23539;SDS011;11947;50.810;4.394;2023-03-01T10:30:21;31.98;;;15.25;;
23539;SDS011;11947;50.810;4.394;2023-03-01T10:32:47;27.33;;;14.43;;
23539;SDS011;11947;50.810;4.394;2023-03-01T10:35:21;28.63;;;14.95;;
23539;SDS011;11947;50.810;4.394;2023-03-01T10:38:04;30.73;;;14.90;;
23539;SDS011;11947;50.810;4.394;2023-03-01T10:40:33;26.83;;;14.40;;
23539;SDS011;11947;50.810;4.394;2023-03-01T10:43:04;26.23;;;14.15;;
23539;SDS011;11947;50.810;4.394;2023-03-01T10:48:18;28.67;;;14.68;;
23539;SDS011;11947;50.810;4.394;2023-03-01T10:58:41;29.85;;;14.40;;
23539;SDS011;11947;50.810;4.394;2023-03-01T11:06:36;22.90;;;13.77;;
23539;SDS011;11947;50.810;4.394;2023-03-01T11:09:19;30.05;;;15.48;;
23539;SDS011;11947;50.810;4.394;2023-03-01T11:11:47;29.45;;;14.48;;
23539;SDS011;11947;50.810;4.394;2023-03-01T11:14:21;25.38;;;14.45;;
23539;SDS011;11947;50.810;4.394;2023-03-01T11:16:49;25.77;;;14.20;;
23539;SDS011;11947;50.810;4.394;2023-03-01T11:19:27;23.30;;;13.07;;
23539;SDS011;11947;50.810;4.394;2023-03-01T11:22:03;26.02;;;13.25;;
23539;SDS011;11947;50.810;4.394;2023-03-01T11:24:46;21.80;;;12.98;;
23539;SDS011;11947;50.810;4.394;2023-03-01T11:27:23;24.60;;;13.95;;
23539;SDS011;11947;50.810;4.394;2023-03-01T11:33:19;21.65;;;13.27;;
23539;SDS011;11947;50.810;4.394;2023-03-01T11:35:29;24.27;;;13.30;;
23539;SDS011;11947;50.810;4.394;2023-03-01T11:43:20;21.20;;;12.52;;
23539;SDS011;11947;50.810;4.394;2023-03-01T11:46:01;24.63;;;13.50;;
23539;SDS011;11947;50.810;4.394;2023-03-01T11:51:33;19.25;;;12.68;;
23539;SDS011;11947;50.810;4.394;2023-03-01T11:59:45;17.23;;;12.82;;
23539;SDS011;11947;50.810;4.394;2023-03-01T12:05:03;19.98;;;11.98;;
23539;SDS011;11947;50.810;4.394;2023-03-01T12:10:17;18.17;;;12.60;;
23539;SDS011;11947;50.810;4.394;2023-03-01T12:13:18;16.95;;;12.65;;
23539;SDS011;11947;50.810;4.394;2023-03-01T12:18:54;18.73;;;12.60;;
23539;SDS011;11947;50.810;4.394;2023-03-01T12:21:45;14.77;;;12.07;;
23539;SDS011;11947;50.810;4.394;2023-03-01T12:32:33;16.70;;;12.50;;
23539;SDS011;11947;50.810;4.394;2023-03-01T12:41:36;16.98;;;11.88;;
23539;SDS011;11947;50.810;4.394;2023-03-01T12:50:37;16.17;;;11.63;;
23539;SDS011;11947;50.810;4.394;2023-03-01T12:53:13;17.35;;;11.73;;
23539;SDS011;11947;50.810;4.394;2023-03-01T12:55:49;13.52;;;10.93;;
23539;SDS011;11947;50.810;4.394;2023-03-01T12:58:35;15.77;;;11.70;;
23539;SDS011;11947;50.810;4.394;2023-03-01T13:04:31;16.75;;;11.10;;
23539;SDS011;11947;50.810;4.394;2023-03-01T13:17:46;15.30;;;11.75;;
23539;SDS011;11947;50.810;4.394;2023-03-01T13:20:14;15.57;;;11.65;;
23539;SDS011;11947;50.810;4.394;2023-03-01T13:22:42;18.70;;;12.07;;
23539;SDS011;11947;50.810;4.394;2023-03-01T13:25:13;14.25;;;10.70;;
23539;SDS011;11947;50.810;4.394;2023-03-01T13:27:41;15.63;;;10.43;;
23539;SDS011;11947;50.810;4.394;2023-03-01T13:35:53;17.27;;;12.07;;
23539;SDS011;11947;50.810;4.394;2023-03-01T13:49:41;15.77;;;11.73;;
23539;SDS011;11947;50.810;4.394;2023-03-01T13:57:54;18.23;;;11.68;;
23539;SDS011;11947;50.810;4.394;2023-03-01T14:03:06;15.52;;;11.35;;
23539;SDS011;11947;50.810;4.394;2023-03-01T14:05:34;14.00;;;10.63;;
23539;SDS011;11947;50.810;4.394;2023-03-01T14:08:01;17.00;;;11.48;;
23539;SDS011;11947;50.810;4.394;2023-03-01T14:10:43;16.55;;;11.13;;
23539;SDS011;11947;50.810;4.394;2023-03-01T14:13:25;17.73;;;12.02;;
23539;SDS011;11947;50.810;4.394;2023-03-01T14:16:08;16.08;;;11.85;;
23539;SDS011;11947;50.810;4.394;2023-03-01T14:21:28;18.13;;;11.23;;
23539;SDS011;11947;50.810;4.394;2023-03-01T14:23:55;18.52;;;11.88;;
23539;SDS011;11947;50.810;4.394;2023-03-01T14:26:21;22.02;;;12.13;;
23539;SDS011;11947;50.810;4.394;2023-03-01T14:28:48;18.58;;;12.05;;
23539;SDS011;11947;50.810;4.394;2023-03-01T14:31:48;21.70;;;12.27;;
23539;SDS011;11947;50.810;4.394;2023-03-01T14:36:43;17.92;;;11.07;;
23539;SDS011;11947;50.810;4.394;2023-03-01T14:39:16;19.52;;;12.00;;
23539;SDS011;11947;50.810;4.394;2023-03-01T14:41:49;19.92;;;12.30;;
23539;SDS011;11947;50.810;4.394;2023-03-01T14:44:17;22.58;;;11.82;;
23539;SDS011;11947;50.810;4.394;2023-03-01T14:46:51;25.23;;;12.38;;
23539;SDS011;11947;50.810;4.394;2023-03-01T14:49:23;21.75;;;12.07;;
23539;SDS011;11947;50.810;4.394;2023-03-01T14:51:53;19.02;;;11.85;;
23539;SDS011;11947;50.810;4.394;2023-03-01T14:54:36;19.58;;;11.52;;
23539;SDS011;11947;50.810;4.394;2023-03-01T14:57:26;22.77;;;12.15;;
23539;SDS011;11947;50.810;4.394;2023-03-01T14:59:55;21.17;;;11.65;;
23539;SDS011;11947;50.810;4.394;2023-03-01T15:02:25;18.13;;;11.15;;
23539;SDS011;11947;50.810;4.394;2023-03-01T15:04:54;19.27;;;11.60;;
23539;SDS011;11947;50.810;4.394;2023-03-01T15:07:22;18.38;;;11.40;;
23539;SDS011;11947;50.810;4.394;2023-03-01T15:09:54;19.20;;;11.43;;
23539;SDS011;11947;50.810;4.394;2023-03-01T15:15:08;17.35;;;11.57;;
23539;SDS011;11947;50.810;4.394;2023-03-01T15:17:56;18.38;;;11.80;;
23539;SDS011;11947;50.810;4.394;2023-03-01T15:20:24;19.95;;;11.93;;
23539;SDS011;11947;50.810;4.394;2023-03-01T15:22:52;20.20;;;11.95;;
23539;SDS011;11947;50.810;4.394;2023-03-01T15:25:21;24.50;;;11.38;;
23539;SDS011;11947;50.810;4.394;2023-03-01T15:27:49;21.25;;;11.95;;
23539;SDS011;11947;50.810;4.394;2023-03-01T15:30:17;26.98;;;12.05;;
23539;SDS011;11947;50.810;4.394;2023-03-01T15:35:46;20.90;;;12.33;;
23539;SDS011;11947;50.810;4.394;2023-03-01T15:38:28;22.02;;;12.45;;
23539;SDS011;11947;50.810;4.394;2023-03-01T15:40:59;23.85;;;12.60;;
23539;SDS011;11947;50.810;4.394;2023-03-01T15:43:41;24.27;;;12.82;;
23539;SDS011;11947;50.810;4.394;2023-03-01T15:48:47;20.80;;;11.90;;
23539;SDS011;11947;50.810;4.394;2023-03-01T15:51:17;25.40;;;11.88;;
23539;SDS011;11947;50.810;4.394;2023-03-01T15:53:49;22.48;;;11.40;;
23539;SDS011;11947;50.810;4.394;2023-03-01T15:56:16;20.77;;;11.27;;
23539;SDS011;11947;50.810;4.394;2023-03-01T15:58:42;20.00;;;11.80;;
23539;SDS011;11947;50.810;4.394;2023-03-01T16:01:12;23.77;;;12.23;;
23539;SDS011;11947;50.810;4.394;2023-03-01T16:03:39;22.23;;;11.63;;
23539;SDS011;11947;50.810;4.394;2023-03-01T16:06:05;26.80;;;11.70;;
23539;SDS011;11947;50.810;4.394;2023-03-01T16:08:30;22.88;;;10.63;;
23539;SDS011;11947;50.810;4.394;2023-03-01T16:10:56;20.88;;;10.65;;
23539;SDS011;11947;50.810;4.394;2023-03-01T16:13:22;23.02;;;10.68;;
23539;SDS011;11947;50.810;4.394;2023-03-01T16:15:50;20.83;;;10.13;;
23539;SDS011;11947;50.810;4.394;2023-03-01T16:18:16;19.98;;;10.23;;
23539;SDS011;11947;50.810;4.394;2023-03-01T16:20:41;18.88;;;10.70;;
23539;SDS011;11947;50.810;4.394;2023-03-01T16:23:09;20.30;;;9.95;;
23539;SDS011;11947;50.810;4.394;2023-03-01T16:25:36;19.52;;;10.55;;
23539;SDS011;11947;50.810;4.394;2023-03-01T16:28:02;19.80;;;10.23;;
23539;SDS011;11947;50.810;4.394;2023-03-01T16:30:33;19.20;;;10.40;;
23539;SDS011;11947;50.810;4.394;2023-03-01T16:33:00;21.33;;;10.02;;
23539;SDS011;11947;50.810;4.394;2023-03-01T16:35:26;23.13;;;10.23;;
23539;SDS011;11947;50.810;4.394;2023-03-01T16:37:52;18.38;;;10.20;;
23539;SDS011;11947;50.810;4.394;2023-03-01T16:40:22;18.50;;;9.45;;
23539;SDS011;11947;50.810;4.394;2023-03-01T16:42:49;17.55;;;9.10;;
23539;SDS011;11947;50.810;4.394;2023-03-01T16:45:16;17.30;;;9.75;;
23539;SDS011;11947;50.810;4.394;2023-03-01T16:47:42;27.63;;;9.50;;
23539;SDS011;11947;50.810;4.394;2023-03-01T16:50:08;17.38;;;9.45;;